sensor_id;sensor_type;location;lat;lon;timestamp;P1;durP1;ratioP1;P2;durP2;ratioP2
4732;SDS011;2380;53.668;10.008;2023-03-03T00:00:55;145.60;;;21.27;;
4732;SDS011;2380;53.668;10.008;2023-03-03T00:03:25;92.45;;;19.63;;
4732;SDS011;2380;53.668;10.008;2023-03-03T00:05:55;132.75;;;21.40;;
4732;SDS011;2380;53.668;10.008;2023-03-03T00:08:24;102.50;;;20.35;;
4732;SDS011;2380;53.668;10.008;2023-03-03T00:10:54;62.42;;;19.48;;
4732;SDS011;2380;53.668;10.008;2023-03-03T00:13:25;80.82;;;21.45;;
4732;SDS011;2380;53.668;10.008;2023-03-03T00:16:07;84.10;;;19.02;;
4732;SDS011;2380;53.668;10.008;2023-03-03T00:18:42;124.18;;;24.23;;
4732;SDS011;2380;53.668;10.008;2023-03-03T00:24:10;79.63;;;18.75;;
4732;SDS011;2380;53.668;10.008;2023-03-03T00:26:44;66.32;;;20.80;;
4732;SDS011;2380;53.668;10.008;2023-03-03T00:29:25;101.60;;;21.08;;
4732;SDS011;2380;53.668;10.008;2023-03-03T00:31:59;161.07;;;25.33;;
4732;SDS011;2380;53.668;10.008;2023-03-03T00:34:41;84.22;;;20.73;;
4732;SDS011;2380;53.668;10.008;2023-03-03T00:37:19;75.65;;;19.77;;
4732;SDS011;2380;53.668;10.008;2023-03-03T00:39:54;96.63;;;20.95;;
4732;SDS011;2380;53.668;10.008;2023-03-03T00:42:29;64.75;;;19.85;;
4732;SDS011;2380;53.668;10.008;2023-03-03T00:45:07;52.55;;;21.20;;
4732;SDS011;2380;53.668;10.008;2023-03-03T00:47:47;170.82;;;21.95;;
4732;SDS011;2380;53.668;10.008;2023-03-03T00:50:20;153.82;;;21.83;;
4732;SDS011;2380;53.668;10.008;2023-03-03T00:52:59;84.30;;;19.88;;
4732;SDS011;2380;53.668;10.008;2023-03-03T00:55:31;84.25;;;20.63;;
4732;SDS011;2380;53.668;10.008;2023-03-03T00:58:02;116.72;;;22.77;;
4732;SDS011;2380;53.668;10.008;2023-03-03T01:00:35;93.47;;;22.52;;
4732;SDS011;2380;53.668;10.008;2023-03-03T01:03:06;100.18;;;20.13;;
4732;SDS011;2380;53.668;10.008;2023-03-03T01:05:36;54.50;;;21.27;;
4732;SDS011;2380;53.668;10.008;2023-03-03T01:08:06;73.93;;;21.98;;
4732;SDS011;2380;53.668;10.008;2023-03-03T01:10:36;64.05;;;19.02;;
4732;SDS011;2380;53.668;10.008;2023-03-03T01:13:08;96.70;;;20.45;;
4732;SDS011;2380;53.668;10.008;2023-03-03T01:15:40;81.05;;;20.25;;
4732;SDS011;2380;53.668;10.008;2023-03-03T01:18:10;73.65;;;22.42;;
4732;SDS011;2380;53.668;10.008;2023-03-03T01:20:42;131.60;;;23.25;;
4732;SDS011;2380;53.668;10.008;2023-03-03T01:23:12;110.25;;;25.00;;
4732;SDS011;2380;53.668;10.008;2023-03-03T01:25:41;78.57;;;19.77;;
4732;SDS011;2380;53.668;10.008;2023-03-03T01:28:11;63.67;;;20.60;;
4732;SDS011;2380;53.668;10.008;2023-03-03T01:30:43;103.60;;;21.98;;
4732;SDS011;2380;53.668;10.008;2023-03-03T01:33:12;75.60;;;20.45;;
4732;SDS011;2380;53.668;10.008;2023-03-03T01:35:42;65.05;;;19.50;;
4732;SDS011;2380;53.668;10.008;2023-03-03T01:38:12;76.60;;;18.63;;
4732;SDS011;2380;53.668;10.008;2023-03-03T01:40:42;78.80;;;18.33;;
4732;SDS011;2380;53.668;10.008;2023-03-03T01:43:11;58.90;;;21.08;;
4732;SDS011;2380;53.668;10.008;2023-03-03T01:46:18;209.88;;;22.70;;
4732;SDS011;2380;53.668;10.008;2023-03-03T01:48:55;142.93;;;21.13;;
4732;SDS011;2380;53.668;10.008;2023-03-03T01:51:29;50.40;;;18.70;;
4732;SDS011;2380;53.668;10.008;2023-03-03T01:54:01;65.60;;;19.98;;
4732;SDS011;2380;53.668;10.008;2023-03-03T01:56:32;80.28;;;20.10;;
4732;SDS011;2380;53.668;10.008;2023-03-03T01:59:02;97.53;;;22.08;;
4732;SDS011;2380;53.668;10.008;2023-03-03T02:01:37;99.80;;;20.95;;
4732;SDS011;2380;53.668;10.008;2023-03-03T02:04:07;114.30;;;21.00;;
4732;SDS011;2380;53.668;10.008;2023-03-03T02:06:37;76.80;;;21.70;;
4732;SDS011;2380;53.668;10.008;2023-03-03T02:09:10;134.18;;;22.80;;
4732;SDS011;2380;53.668;10.008;2023-03-03T02:11:43;84.10;;;19.83;;
4732;SDS011;2380;53.668;10.008;2023-03-03T02:14:13;107.78;;;20.85;;
4732;SDS011;2380;53.668;10.008;2023-03-03T02:16:45;139.45;;;22.33;;
4732;SDS011;2380;53.668;10.008;2023-03-03T02:19:17;42.00;;;18.73;;
4732;SDS011;2380;53.668;10.008;2023-03-03T02:21:50;62.08;;;19.50;;
4732;SDS011;2380;53.668;10.008;2023-03-03T02:24:21;53.42;;;19.63;;
4732;SDS011;2380;53.668;10.008;2023-03-03T02:26:56;54.65;;;19.90;;
4732;SDS011;2380;53.668;10.008;2023-03-03T02:29:26;110.82;;;21.75;;
4732;SDS011;2380;53.668;10.008;2023-03-03T02:31:56;62.80;;;18.25;;
4732;SDS011;2380;53.668;10.008;2023-03-03T02:34:25;89.70;;;19.98;;
4732;SDS011;2380;53.668;10.008;2023-03-03T02:36:55;140.73;;;21.48;;
4732;SDS011;2380;53.668;10.008;2023-03-03T02:39:25;64.85;;;19.08;;
4732;SDS011;2380;53.668;10.008;2023-03-03T02:41:59;113.50;;;20.05;;
4732;SDS011;2380;53.668;10.008;2023-03-03T02:44:34;57.30;;;18.35;;
4732;SDS011;2380;53.668;10.008;2023-03-03T02:47:03;144.18;;;20.90;;
4732;SDS011;2380;53.668;10.008;2023-03-03T02:49:34;66.57;;;18.60;;
4732;SDS011;2380;53.668;10.008;2023-03-03T02:52:06;75.57;;;19.27;;
4732;SDS011;2380;53.668;10.008;2023-03-03T02:54:36;44.78;;;17.05;;
4732;SDS011;2380;53.668;10.008;2023-03-03T02:57:09;70.82;;;19.40;;
4732;SDS011;2380;53.668;10.008;2023-03-03T02:59:39;54.42;;;17.60;;
4732;SDS011;2380;53.668;10.008;2023-03-03T03:02:08;54.25;;;17.25;;
4732;SDS011;2380;53.668;10.008;2023-03-03T03:04:37;86.03;;;18.92;;
4732;SDS011;2380;53.668;10.008;2023-03-03T03:07:07;52.97;;;18.55;;
4732;SDS011;2380;53.668;10.008;2023-03-03T03:09:37;59.85;;;18.45;;
4732;SDS011;2380;53.668;10.008;2023-03-03T03:12:09;151.30;;;20.10;;
4732;SDS011;2380;53.668;10.008;2023-03-03T03:14:38;49.50;;;18.20;;
4732;SDS011;2380;53.668;10.008;2023-03-03T03:17:07;47.13;;;16.55;;
4732;SDS011;2380;53.668;10.008;2023-03-03T03:19:38;55.78;;;19.30;;
4732;SDS011;2380;53.668;10.008;2023-03-03T03:22:07;66.47;;;18.83;;
4732;SDS011;2380;53.668;10.008;2023-03-03T03:24:37;45.17;;;15.93;;
4732;SDS011;2380;53.668;10.008;2023-03-03T03:27:09;54.00;;;18.42;;
4732;SDS011;2380;53.668;10.008;2023-03-03T03:29:38;83.22;;;18.17;;
4732;SDS011;2380;53.668;10.008;2023-03-03T03:32:08;71.60;;;18.95;;
4732;SDS011;2380;53.668;10.008;2023-03-03T03:34:38;43.20;;;17.58;;
4732;SDS011;2380;53.668;10.008;2023-03-03T03:37:07;39.25;;;16.67;;
4732;SDS011;2380;53.668;10.008;2023-03-03T03:39:37;53.25;;;17.92;;
4732;SDS011;2380;53.668;10.008;2023-03-03T03:42:09;59.00;;;20.17;;
4732;SDS011;2380;53.668;10.008;2023-03-03T03:44:39;65.75;;;18.67;;
4732;SDS011;2380;53.668;10.008;2023-03-03T03:47:09;40.65;;;17.45;;
4732;SDS011;2380;53.668;10.008;2023-03-03T03:49:38;53.17;;;19.25;;
4732;SDS011;2380;53.668;10.008;2023-03-03T03:52:08;44.55;;;18.00;;
4732;SDS011;2380;53.668;10.008;2023-03-03T03:54:37;53.58;;;17.27;;
4732;SDS011;2380;53.668;10.008;2023-03-03T03:57:09;51.30;;;17.95;;
4732;SDS011;2380;53.668;10.008;2023-03-03T03:59:39;45.95;;;18.35;;
4732;SDS011;2380;53.668;10.008;2023-03-03T04:02:09;44.58;;;19.05;;
4732;SDS011;2380;53.668;10.008;2023-03-03T04:04:38;89.72;;;20.17;;
4732;SDS011;2380;53.668;10.008;2023-03-03T04:07:08;60.45;;;18.40;;
4732;SDS011;2380;53.668;10.008;2023-03-03T04:09:37;71.35;;;16.73;;
4732;SDS011;2380;53.668;10.008;2023-03-03T04:12:06;125.47;;;22.02;;
4732;SDS011;2380;53.668;10.008;2023-03-03T04:14:39;66.30;;;17.15;;
4732;SDS011;2380;53.668;10.008;2023-03-03T04:17:09;50.15;;;16.38;;
4732;SDS011;2380;53.668;10.008;2023-03-03T04:19:44;64.57;;;18.50;;
4732;SDS011;2380;53.668;10.008;2023-03-03T04:22:13;51.35;;;18.50;;
4732;SDS011;2380;53.668;10.008;2023-03-03T04:24:43;47.38;;;17.25;;
4732;SDS011;2380;53.668;10.008;2023-03-03T04:27:13;45.03;;;17.75;;
4732;SDS011;2380;53.668;10.008;2023-03-03T04:29:46;86.30;;;17.23;;
4732;SDS011;2380;53.668;10.008;2023-03-03T04:32:15;61.10;;;16.08;;
4732;SDS011;2380;53.668;10.008;2023-03-03T04:34:45;74.78;;;17.63;;
4732;SDS011;2380;53.668;10.008;2023-03-03T04:37:32;72.35;;;18.80;;
4732;SDS011;2380;53.668;10.008;2023-03-03T04:40:02;49.50;;;18.73;;
4732;SDS011;2380;53.668;10.008;2023-03-03T04:42:33;55.88;;;17.00;;
4732;SDS011;2380;53.668;10.008;2023-03-03T04:45:05;48.05;;;16.60;;
4732;SDS011;2380;53.668;10.008;2023-03-03T04:47:35;59.83;;;17.23;;
4732;SDS011;2380;53.668;10.008;2023-03-03T04:50:06;53.45;;;19.08;;
4732;SDS011;2380;53.668;10.008;2023-03-03T04:52:36;46.40;;;16.80;;
4732;SDS011;2380;53.668;10.008;2023-03-03T04:55:07;150.15;;;21.02;;
4732;SDS011;2380;53.668;10.008;2023-03-03T04:57:37;51.78;;;18.35;;
4732;SDS011;2380;53.668;10.008;2023-03-03T05:00:11;44.55;;;17.85;;
4732;SDS011;2380;53.668;10.008;2023-03-03T05:02:41;49.50;;;18.33;;
4732;SDS011;2380;53.668;10.008;2023-03-03T05:05:10;99.57;;;17.75;;
4732;SDS011;2380;53.668;10.008;2023-03-03T05:07:40;75.22;;;18.33;;
4732;SDS011;2380;53.668;10.008;2023-03-03T05:10:10;51.08;;;17.27;;
4732;SDS011;2380;53.668;10.008;2023-03-03T05:12:40;83.22;;;20.10;;
4732;SDS011;2380;53.668;10.008;2023-03-03T05:15:12;100.55;;;19.35;;
4732;SDS011;2380;53.668;10.008;2023-03-03T05:17:41;61.75;;;18.88;;
4732;SDS011;2380;53.668;10.008;2023-03-03T05:20:11;46.80;;;17.88;;
4732;SDS011;2380;53.668;10.008;2023-03-03T05:22:41;50.08;;;17.77;;
4732;SDS011;2380;53.668;10.008;2023-03-03T05:25:10;43.03;;;16.67;;
4732;SDS011;2380;53.668;10.008;2023-03-03T05:27:40;49.45;;;18.98;;
4732;SDS011;2380;53.668;10.008;2023-03-03T05:30:12;131.27;;;20.95;;
4732;SDS011;2380;53.668;10.008;2023-03-03T05:32:42;53.13;;;16.42;;
4732;SDS011;2380;53.668;10.008;2023-03-03T05:35:12;57.65;;;17.10;;
4732;SDS011;2380;53.668;10.008;2023-03-03T05:37:41;68.07;;;17.55;;
4732;SDS011;2380;53.668;10.008;2023-03-03T05:40:13;86.88;;;18.77;;
4732;SDS011;2380;53.668;10.008;2023-03-03T05:42:43;69.25;;;19.25;;
4732;SDS011;2380;53.668;10.008;2023-03-03T05:45:15;64.68;;;17.00;;
4732;SDS011;2380;53.668;10.008;2023-03-03T05:47:46;126.95;;;17.55;;
4732;SDS011;2380;53.668;10.008;2023-03-03T05:50:15;54.83;;;17.55;;
4732;SDS011;2380;53.668;10.008;2023-03-03T05:52:46;61.40;;;17.23;;
4732;SDS011;2380;53.668;10.008;2023-03-03T05:55:16;74.43;;;22.02;;
4732;SDS011;2380;53.668;10.008;2023-03-03T05:57:48;143.55;;;53.08;;
4732;SDS011;2380;53.668;10.008;2023-03-03T06:00:21;59.17;;;17.83;;
4732;SDS011;2380;53.668;10.008;2023-03-03T06:02:51;99.47;;;19.25;;
4732;SDS011;2380;53.668;10.008;2023-03-03T06:05:20;69.43;;;22.48;;
4732;SDS011;2380;53.668;10.008;2023-03-03T06:07:50;65.68;;;23.95;;
4732;SDS011;2380;53.668;10.008;2023-03-03T06:10:19;99.25;;;35.30;;
4732;SDS011;2380;53.668;10.008;2023-03-03T06:12:49;109.65;;;18.05;;
4732;SDS011;2380;53.668;10.008;2023-03-03T06:15:23;52.22;;;15.32;;
4732;SDS011;2380;53.668;10.008;2023-03-03T06:17:52;27.88;;;13.10;;
4732;SDS011;2380;53.668;10.008;2023-03-03T06:20:21;90.38;;;29.73;;
4732;SDS011;2380;53.668;10.008;2023-03-03T06:22:51;63.75;;;15.35;;
4732;SDS011;2380;53.668;10.008;2023-03-03T06:25:20;33.13;;;13.00;;
4732;SDS011;2380;53.668;10.008;2023-03-03T06:27:50;54.80;;;14.35;;
4732;SDS011;2380;53.668;10.008;2023-03-03T06:30:19;82.55;;;15.15;;
4732;SDS011;2380;53.668;10.008;2023-03-03T06:32:53;108.95;;;14.70;;
4732;SDS011;2380;53.668;10.008;2023-03-03T06:35:23;52.40;;;18.10;;
4732;SDS011;2380;53.668;10.008;2023-03-03T06:37:53;29.92;;;13.45;;
4732;SDS011;2380;53.668;10.008;2023-03-03T06:40:22;64.15;;;20.23;;
4732;SDS011;2380;53.668;10.008;2023-03-03T06:42:51;65.18;;;13.48;;
4732;SDS011;2380;53.668;10.008;2023-03-03T06:45:24;51.17;;;16.48;;
4732;SDS011;2380;53.668;10.008;2023-03-03T06:47:53;55.33;;;15.07;;
4732;SDS011;2380;53.668;10.008;2023-03-03T06:50:23;38.60;;;13.20;;
4732;SDS011;2380;53.668;10.008;2023-03-03T06:52:53;33.45;;;15.30;;
4732;SDS011;2380;53.668;10.008;2023-03-03T06:55:30;42.95;;;17.55;;
4732;SDS011;2380;53.668;10.008;2023-03-03T06:58:00;47.05;;;16.23;;
4732;SDS011;2380;53.668;10.008;2023-03-03T07:00:33;51.75;;;20.77;;
4732;SDS011;2380;53.668;10.008;2023-03-03T07:03:05;48.58;;;17.50;;
4732;SDS011;2380;53.668;10.008;2023-03-03T07:05:36;65.43;;;15.70;;
4732;SDS011;2380;53.668;10.008;2023-03-03T07:08:08;64.88;;;16.52;;
4732;SDS011;2380;53.668;10.008;2023-03-03T07:10:41;44.15;;;17.20;;
4732;SDS011;2380;53.668;10.008;2023-03-03T07:13:21;55.45;;;22.35;;
4732;SDS011;2380;53.668;10.008;2023-03-03T07:15:55;42.05;;;17.60;;
4732;SDS011;2380;53.668;10.008;2023-03-03T07:18:31;57.08;;;18.42;;
4732;SDS011;2380;53.668;10.008;2023-03-03T07:21:06;47.90;;;14.85;;
4732;SDS011;2380;53.668;10.008;2023-03-03T07:23:43;50.67;;;14.68;;
4732;SDS011;2380;53.668;10.008;2023-03-03T07:26:14;43.42;;;13.25;;
4732;SDS011;2380;53.668;10.008;2023-03-03T07:28:47;32.20;;;12.52;;
4732;SDS011;2380;53.668;10.008;2023-03-03T07:31:27;53.03;;;14.25;;
4732;SDS011;2380;53.668;10.008;2023-03-03T07:33:58;66.07;;;12.93;;
4732;SDS011;2380;53.668;10.008;2023-03-03T07:36:29;52.13;;;12.77;;
4732;SDS011;2380;53.668;10.008;2023-03-03T07:39:00;41.10;;;12.68;;
4732;SDS011;2380;53.668;10.008;2023-03-03T07:41:31;37.78;;;13.18;;
4732;SDS011;2380;53.668;10.008;2023-03-03T07:44:03;46.42;;;12.10;;
4732;SDS011;2380;53.668;10.008;2023-03-03T07:46:38;36.03;;;12.40;;
4732;SDS011;2380;53.668;10.008;2023-03-03T07:49:15;32.28;;;11.18;;
4732;SDS011;2380;53.668;10.008;2023-03-03T07:51:51;38.63;;;10.00;;
4732;SDS011;2380;53.668;10.008;2023-03-03T07:54:28;38.67;;;12.20;;
4732;SDS011;2380;53.668;10.008;2023-03-03T07:57:00;53.10;;;10.82;;
4732;SDS011;2380;53.668;10.008;2023-03-03T07:59:34;37.08;;;11.25;;
4732;SDS011;2380;53.668;10.008;2023-03-03T08:02:13;57.15;;;12.68;;
4732;SDS011;2380;53.668;10.008;2023-03-03T08:04:53;37.70;;;12.32;;
4732;SDS011;2380;53.668;10.008;2023-03-03T08:07:23;75.30;;;15.38;;
4732;SDS011;2380;53.668;10.008;2023-03-03T08:09:55;34.30;;;12.20;;
4732;SDS011;2380;53.668;10.008;2023-03-03T08:15:17;42.65;;;13.48;;
4732;SDS011;2380;53.668;10.008;2023-03-03T08:17:53;51.55;;;12.80;;
4732;SDS011;2380;53.668;10.008;2023-03-03T08:23:12;33.47;;;11.70;;
4732;SDS011;2380;53.668;10.008;2023-03-03T08:25:43;69.50;;;12.98;;
4732;SDS011;2380;53.668;10.008;2023-03-03T08:28:13;40.75;;;11.30;;
4732;SDS011;2380;53.668;10.008;2023-03-03T08:30:43;41.67;;;12.10;;
4732;SDS011;2380;53.668;10.008;2023-03-03T08:33:15;26.15;;;11.30;;
4732;SDS011;2380;53.668;10.008;2023-03-03T08:35:46;29.30;;;10.27;;
4732;SDS011;2380;53.668;10.008;2023-03-03T08:38:16;45.65;;;9.32;;
4732;SDS011;2380;53.668;10.008;2023-03-03T08:40:48;33.42;;;10.63;;
4732;SDS011;2380;53.668;10.008;2023-03-03T08:43:18;33.83;;;10.80;;
4732;SDS011;2380;53.668;10.008;2023-03-03T08:45:50;45.65;;;10.38;;
4732;SDS011;2380;53.668;10.008;2023-03-03T08:48:23;29.75;;;10.13;;
4732;SDS011;2380;53.668;10.008;2023-03-03T08:50:53;33.72;;;9.63;;
4732;SDS011;2380;53.668;10.008;2023-03-03T08:53:23;35.60;;;10.50;;
4732;SDS011;2380;53.668;10.008;2023-03-03T08:55:54;30.73;;;9.10;;
4732;SDS011;2380;53.668;10.008;2023-03-03T08:58:24;19.90;;;9.15;;
4732;SDS011;2380;53.668;10.008;2023-03-03T09:01:00;25.65;;;9.88;;
4732;SDS011;2380;53.668;10.008;2023-03-03T09:03:35;25.40;;;9.02;;
4732;SDS011;2380;53.668;10.008;2023-03-03T09:06:05;49.47;;;9.23;;
4732;SDS011;2380;53.668;10.008;2023-03-03T09:08:34;29.52;;;8.57;;
4732;SDS011;2380;53.668;10.008;2023-03-03T09:11:08;18.88;;;7.68;;
4732;SDS011;2380;53.668;10.008;2023-03-03T09:13:38;27.02;;;8.07;;
4732;SDS011;2380;53.668;10.008;2023-03-03T09:16:10;43.97;;;14.15;;
4732;SDS011;2380;53.668;10.008;2023-03-03T09:18:44;21.25;;;7.72;;
4732;SDS011;2380;53.668;10.008;2023-03-03T09:21:15;30.13;;;8.45;;
4732;SDS011;2380;53.668;10.008;2023-03-03T09:23:53;32.67;;;10.65;;
4732;SDS011;2380;53.668;10.008;2023-03-03T09:26:25;26.58;;;7.70;;
4732;SDS011;2380;53.668;10.008;2023-03-03T09:28:58;25.35;;;8.05;;
4732;SDS011;2380;53.668;10.008;2023-03-03T09:31:35;24.80;;;8.85;;
4732;SDS011;2380;53.668;10.008;2023-03-03T09:36:55;21.98;;;6.60;;
4732;SDS011;2380;53.668;10.008;2023-03-03T09:39:26;24.52;;;7.88;;
4732;SDS011;2380;53.668;10.008;2023-03-03T09:42:02;35.25;;;6.53;;
4732;SDS011;2380;53.668;10.008;2023-03-03T09:44:53;20.55;;;8.85;;
4732;SDS011;2380;53.668;10.008;2023-03-03T09:47:34;21.65;;;8.90;;
4732;SDS011;2380;53.668;10.008;2023-03-03T09:50:15;19.35;;;5.85;;
4732;SDS011;2380;53.668;10.008;2023-03-03T09:52:51;15.45;;;6.75;;
4732;SDS011;2380;53.668;10.008;2023-03-03T09:55:34;27.10;;;8.38;;
4732;SDS011;2380;53.668;10.008;2023-03-03T09:58:14;16.92;;;7.57;;
4732;SDS011;2380;53.668;10.008;2023-03-03T10:00:54;25.98;;;9.60;;
4732;SDS011;2380;53.668;10.008;2023-03-03T10:03:35;19.30;;;8.43;;
4732;SDS011;2380;53.668;10.008;2023-03-03T10:06:37;20.45;;;7.35;;
4732;SDS011;2380;53.668;10.008;2023-03-03T10:12:10;30.08;;;10.68;;
4732;SDS011;2380;53.668;10.008;2023-03-03T10:14:48;33.83;;;10.40;;
4732;SDS011;2380;53.668;10.008;2023-03-03T10:17:26;19.55;;;8.38;;
4732;SDS011;2380;53.668;10.008;2023-03-03T10:20:08;22.70;;;9.15;;
4732;SDS011;2380;53.668;10.008;2023-03-03T10:22:49;27.50;;;8.60;;
4732;SDS011;2380;53.668;10.008;2023-03-03T10:25:24;21.67;;;8.18;;
4732;SDS011;2380;53.668;10.008;2023-03-03T10:28:17;22.27;;;8.60;;
4732;SDS011;2380;53.668;10.008;2023-03-03T10:30:58;20.65;;;8.20;;
4732;SDS011;2380;53.668;10.008;2023-03-03T10:33:41;17.80;;;8.00;;
4732;SDS011;2380;53.668;10.008;2023-03-03T10:36:18;16.70;;;8.70;;
4732;SDS011;2380;53.668;10.008;2023-03-03T10:39:02;22.20;;;9.20;;
4732;SDS011;2380;53.668;10.008;2023-03-03T10:42:09;23.13;;;9.30;;
4732;SDS011;2380;53.668;10.008;2023-03-03T10:44:56;17.30;;;8.30;;
4732;SDS011;2380;53.668;10.008;2023-03-03T10:47:35;20.80;;;8.50;;
4732;SDS011;2380;53.668;10.008;2023-03-03T10:50:16;21.27;;;8.90;;
4732;SDS011;2380;53.668;10.008;2023-03-03T10:52:48;19.30;;;8.47;;
4732;SDS011;2380;53.668;10.008;2023-03-03T10:55:30;22.60;;;10.10;;
4732;SDS011;2380;53.668;10.008;2023-03-03T10:58:09;23.60;;;11.47;;
4732;SDS011;2380;53.668;10.008;2023-03-03T11:00:48;23.43;;;11.10;;
4732;SDS011;2380;53.668;10.008;2023-03-03T11:03:29;25.43;;;10.80;;
4732;SDS011;2380;53.668;10.008;2023-03-03T11:06:08;25.93;;;12.37;;
4732;SDS011;2380;53.668;10.008;2023-03-03T11:08:40;23.03;;;11.87;;
4732;SDS011;2380;53.668;10.008;2023-03-03T11:11:16;28.60;;;12.13;;
4732;SDS011;2380;53.668;10.008;2023-03-03T11:13:49;28.70;;;14.20;;
4732;SDS011;2380;53.668;10.008;2023-03-03T11:19:23;28.90;;;13.30;;
4732;SDS011;2380;53.668;10.008;2023-03-03T11:22:10;30.20;;;13.27;;
4732;SDS011;2380;53.668;10.008;2023-03-03T11:24:51;28.50;;;12.00;;
4732;SDS011;2380;53.668;10.008;2023-03-03T11:27:41;30.53;;;13.53;;
4732;SDS011;2380;53.668;10.008;2023-03-03T11:30:27;24.80;;;12.53;;
4732;SDS011;2380;53.668;10.008;2023-03-03T11:33:03;29.33;;;12.20;;
4732;SDS011;2380;53.668;10.008;2023-03-03T11:35:37;31.50;;;12.63;;
4732;SDS011;2380;53.668;10.008;2023-03-03T11:38:18;25.60;;;11.67;;
4732;SDS011;2380;53.668;10.008;2023-03-03T11:40:56;32.63;;;12.80;;
4732;SDS011;2380;53.668;10.008;2023-03-03T11:43:31;17.40;;;7.87;;
4732;SDS011;2380;53.668;10.008;2023-03-03T11:46:04;27.85;;;11.35;;
4732;SDS011;2380;53.668;10.008;2023-03-03T11:48:37;22.60;;;9.47;;
4732;SDS011;2380;53.668;10.008;2023-03-03T11:51:11;21.97;;;7.63;;
4732;SDS011;2380;53.668;10.008;2023-03-03T11:53:45;24.20;;;10.50;;
4732;SDS011;2380;53.668;10.008;2023-03-03T11:56:23;26.40;;;9.80;;
4732;SDS011;2380;53.668;10.008;2023-03-03T11:59:00;27.10;;;11.57;;
4732;SDS011;2380;53.668;10.008;2023-03-03T12:01:35;29.50;;;11.90;;
4732;SDS011;2380;53.668;10.008;2023-03-03T12:04:10;26.63;;;12.27;;
4732;SDS011;2380;53.668;10.008;2023-03-03T12:06:45;33.60;;;11.80;;
4732;SDS011;2380;53.668;10.008;2023-03-03T12:09:30;31.80;;;13.27;;
4732;SDS011;2380;53.668;10.008;2023-03-03T12:12:05;26.43;;;10.63;;
4732;SDS011;2380;53.668;10.008;2023-03-03T12:14:45;26.50;;;11.60;;
4732;SDS011;2380;53.668;10.008;2023-03-03T12:17:26;25.30;;;11.20;;
4732;SDS011;2380;53.668;10.008;2023-03-03T12:20:17;25.70;;;10.10;;
4732;SDS011;2380;53.668;10.008;2023-03-03T12:22:52;28.33;;;10.57;;
4732;SDS011;2380;53.668;10.008;2023-03-03T12:25:33;20.30;;;9.67;;
4732;SDS011;2380;53.668;10.008;2023-03-03T12:28:06;28.10;;;9.50;;
4732;SDS011;2380;53.668;10.008;2023-03-03T12:33:52;23.17;;;9.63;;
4732;SDS011;2380;53.668;10.008;2023-03-03T12:39:35;21.47;;;8.13;;
4732;SDS011;2380;53.668;10.008;2023-03-03T12:42:11;26.13;;;9.90;;
4732;SDS011;2380;53.668;10.008;2023-03-03T12:44:46;25.13;;;10.10;;
4732;SDS011;2380;53.668;10.008;2023-03-03T12:47:21;19.73;;;8.80;;
4732;SDS011;2380;53.668;10.008;2023-03-03T12:49:58;21.70;;;8.80;;
4732;SDS011;2380;53.668;10.008;2023-03-03T12:52:36;25.13;;;9.20;;
4732;SDS011;2380;53.668;10.008;2023-03-03T12:55:15;13.57;;;4.33;;
4732;SDS011;2380;53.668;10.008;2023-03-03T12:57:52;16.63;;;6.30;;
4732;SDS011;2380;53.668;10.008;2023-03-03T13:00:27;19.80;;;7.03;;
4732;SDS011;2380;53.668;10.008;2023-03-03T13:03:03;15.30;;;5.70;;
4732;SDS011;2380;53.668;10.008;2023-03-03T13:05:46;12.30;;;4.97;;
4732;SDS011;2380;53.668;10.008;2023-03-03T13:11:31;9.97;;;3.63;;
4732;SDS011;2380;53.668;10.008;2023-03-03T13:14:13;9.43;;;3.97;;
4732;SDS011;2380;53.668;10.008;2023-03-03T13:17:00;15.23;;;4.30;;
4732;SDS011;2380;53.668;10.008;2023-03-03T13:19:33;8.73;;;3.83;;
4732;SDS011;2380;53.668;10.008;2023-03-03T13:22:12;9.37;;;3.77;;
4732;SDS011;2380;53.668;10.008;2023-03-03T13:24:50;10.37;;;3.80;;
4732;SDS011;2380;53.668;10.008;2023-03-03T13:27:24;15.40;;;4.50;;
4732;SDS011;2380;53.668;10.008;2023-03-03T13:29:56;10.60;;;4.30;;
4732;SDS011;2380;53.668;10.008;2023-03-03T13:32:30;15.37;;;3.50;;
4732;SDS011;2380;53.668;10.008;2023-03-03T13:35:07;12.30;;;5.00;;
4732;SDS011;2380;53.668;10.008;2023-03-03T13:37:40;6.50;;;3.33;;
4732;SDS011;2380;53.668;10.008;2023-03-03T13:40:14;10.03;;;2.90;;
4732;SDS011;2380;53.668;10.008;2023-03-03T13:42:46;4.00;;;1.90;;
4732;SDS011;2380;53.668;10.008;2023-03-03T13:45:17;4.93;;;2.40;;
4732;SDS011;2380;53.668;10.008;2023-03-03T13:47:52;8.13;;;1.90;;
4732;SDS011;2380;53.668;10.008;2023-03-03T13:50:29;7.65;;;1.90;;
4732;SDS011;2380;53.668;10.008;2023-03-03T13:53:09;4.20;;;1.80;;
4732;SDS011;2380;53.668;10.008;2023-03-03T13:55:52;4.47;;;1.70;;
4732;SDS011;2380;53.668;10.008;2023-03-03T13:58:28;6.80;;;1.77;;
4732;SDS011;2380;53.668;10.008;2023-03-03T14:01:05;3.33;;;1.63;;
4732;SDS011;2380;53.668;10.008;2023-03-03T14:03:53;12.57;;;2.00;;
4732;SDS011;2380;53.668;10.008;2023-03-03T14:06:28;3.70;;;1.70;;
4732;SDS011;2380;53.668;10.008;2023-03-03T14:12:03;3.40;;;1.30;;
4732;SDS011;2380;53.668;10.008;2023-03-03T14:14:43;7.87;;;1.70;;
4732;SDS011;2380;53.668;10.008;2023-03-03T14:17:16;4.43;;;1.20;;
4732;SDS011;2380;53.668;10.008;2023-03-03T14:19:57;3.40;;;1.50;;
4732;SDS011;2380;53.668;10.008;2023-03-03T14:22:31;7.97;;;1.40;;
4732;SDS011;2380;53.668;10.008;2023-03-03T14:25:09;3.40;;;1.10;;
4732;SDS011;2380;53.668;10.008;2023-03-03T14:27:40;6.20;;;1.23;;
4732;SDS011;2380;53.668;10.008;2023-03-03T14:30:33;4.93;;;1.30;;
4732;SDS011;2380;53.668;10.008;2023-03-03T14:33:19;7.37;;;1.40;;
4732;SDS011;2380;53.668;10.008;2023-03-03T14:36:05;4.23;;;1.00;;
4732;SDS011;2380;53.668;10.008;2023-03-03T14:38:45;5.10;;;1.10;;
4732;SDS011;2380;53.668;10.008;2023-03-03T14:41:33;6.13;;;1.00;;
4732;SDS011;2380;53.668;10.008;2023-03-03T14:46:59;6.07;;;1.50;;
4732;SDS011;2380;53.668;10.008;2023-03-03T14:49:32;10.13;;;3.53;;
4732;SDS011;2380;53.668;10.008;2023-03-03T14:52:07;6.00;;;1.43;;
4732;SDS011;2380;53.668;10.008;2023-03-03T14:54:47;9.90;;;1.93;;
4732;SDS011;2380;53.668;10.008;2023-03-03T14:57:21;11.00;;;1.77;;
4732;SDS011;2380;53.668;10.008;2023-03-03T14:59:57;4.77;;;1.07;;
4732;SDS011;2380;53.668;10.008;2023-03-03T15:02:36;4.35;;;1.50;;
4732;SDS011;2380;53.668;10.008;2023-03-03T15:05:16;9.30;;;3.10;;
4732;SDS011;2380;53.668;10.008;2023-03-03T15:07:49;5.43;;;1.20;;
4732;SDS011;2380;53.668;10.008;2023-03-03T15:10:26;7.77;;;1.60;;
4732;SDS011;2380;53.668;10.008;2023-03-03T15:12:59;4.67;;;1.70;;
4732;SDS011;2380;53.668;10.008;2023-03-03T15:16:00;6.00;;;1.63;;
4732;SDS011;2380;53.668;10.008;2023-03-03T15:18:32;7.57;;;2.13;;
4732;SDS011;2380;53.668;10.008;2023-03-03T15:21:02;7.10;;;1.67;;
4732;SDS011;2380;53.668;10.008;2023-03-03T15:23:36;13.00;;;2.57;;
4732;SDS011;2380;53.668;10.008;2023-03-03T15:26:12;10.35;;;2.20;;
4732;SDS011;2380;53.668;10.008;2023-03-03T15:28:50;13.60;;;2.60;;
4732;SDS011;2380;53.668;10.008;2023-03-03T15:31:27;13.60;;;3.10;;
4732;SDS011;2380;53.668;10.008;2023-03-03T15:34:03;12.20;;;2.77;;
4732;SDS011;2380;53.668;10.008;2023-03-03T15:36:51;16.43;;;3.73;;
4732;SDS011;2380;53.668;10.008;2023-03-03T15:39:23;8.90;;;2.40;;
4732;SDS011;2380;53.668;10.008;2023-03-03T15:42:01;12.37;;;2.90;;
4732;SDS011;2380;53.668;10.008;2023-03-03T15:44:40;8.37;;;2.33;;
4732;SDS011;2380;53.668;10.008;2023-03-03T15:47:23;5.93;;;2.60;;
4732;SDS011;2380;53.668;10.008;2023-03-03T15:50:06;6.10;;;1.83;;
4732;SDS011;2380;53.668;10.008;2023-03-03T15:52:44;11.20;;;2.10;;